sensor_id;sensor_type;location;lat;lon;timestamp;P1;durP1;ratioP1;P2;durP2;ratioP2
76953;SDS011;65893;51.698;-0.292;2023-01-19T00:01:23;4.53;;;1.80;;
76953;SDS011;65893;51.698;-0.292;2023-01-19T00:03:49;5.25;;;1.80;;
76953;SDS011;65893;51.698;-0.292;2023-01-19T00:08:41;8.05;;;2.60;;
76953;SDS011;65893;51.698;-0.292;2023-01-19T00:11:12;8.27;;;1.95;;
76953;SDS011;65893;51.698;-0.292;2023-01-19T00:13:39;9.15;;;2.20;;
76953;SDS011;65893;51.698;-0.292;2023-01-19T00:16:05;10.00;;;2.28;;
76953;SDS011;65893;51.698;-0.292;2023-01-19T00:18:32;6.70;;;2.03;;
76953;SDS011;65893;51.698;-0.292;2023-01-19T00:20:58;6.90;;;1.98;;
76953;SDS011;65893;51.698;-0.292;2023-01-19T00:23:24;12.85;;;2.75;;
76953;SDS011;65893;51.698;-0.292;2023-01-19T00:25:50;11.57;;;2.30;;
76953;SDS011;65893;51.698;-0.292;2023-01-19T00:30:42;6.03;;;2.30;;
76953;SDS011;65893;51.698;-0.292;2023-01-19T00:33:09;11.02;;;2.15;;
76953;SDS011;65893;51.698;-0.292;2023-01-19T00:35:35;5.30;;;1.77;;
76953;SDS011;65893;51.698;-0.292;2023-01-19T00:40:27;9.48;;;1.83;;
76953;SDS011;65893;51.698;-0.292;2023-01-19T00:42:53;7.75;;;2.42;;
76953;SDS011;65893;51.698;-0.292;2023-01-19T00:45:20;9.73;;;2.58;;
76953;SDS011;65893;51.698;-0.292;2023-01-19T00:47:47;8.70;;;2.75;;
76953;SDS011;65893;51.698;-0.292;2023-01-19T00:50:14;12.95;;;2.67;;
76953;SDS011;65893;51.698;-0.292;2023-01-19T00:52:42;6.22;;;2.05;;
76953;SDS011;65893;51.698;-0.292;2023-01-19T00:55:09;6.40;;;1.92;;
76953;SDS011;65893;51.698;-0.292;2023-01-19T00:57:36;5.35;;;1.73;;
76953;SDS011;65893;51.698;-0.292;2023-01-19T01:00:03;6.38;;;2.33;;
76953;SDS011;65893;51.698;-0.292;2023-01-19T01:02:33;9.90;;;2.45;;
76953;SDS011;65893;51.698;-0.292;2023-01-19T01:05:00;6.55;;;1.73;;
76953;SDS011;65893;51.698;-0.292;2023-01-19T01:07:27;4.40;;;1.60;;
76953;SDS011;65893;51.698;-0.292;2023-01-19T01:09:53;5.75;;;2.00;;
76953;SDS011;65893;51.698;-0.292;2023-01-19T01:12:20;5.55;;;2.10;;
76953;SDS011;65893;51.698;-0.292;2023-01-19T01:17:12;6.25;;;2.03;;
76953;SDS011;65893;51.698;-0.292;2023-01-19T01:19:39;7.07;;;2.13;;
76953;SDS011;65893;51.698;-0.292;2023-01-19T01:22:06;5.60;;;1.90;;
76953;SDS011;65893;51.698;-0.292;2023-01-19T01:24:32;5.68;;;2.22;;
76953;SDS011;65893;51.698;-0.292;2023-01-19T01:29:24;6.85;;;1.70;;
76953;SDS011;65893;51.698;-0.292;2023-01-19T01:31:50;7.95;;;2.45;;
76953;SDS011;65893;51.698;-0.292;2023-01-19T01:36:42;6.22;;;1.92;;
76953;SDS011;65893;51.698;-0.292;2023-01-19T01:39:08;9.10;;;2.47;;
76953;SDS011;65893;51.698;-0.292;2023-01-19T01:41:34;6.38;;;2.03;;
76953;SDS011;65893;51.698;-0.292;2023-01-19T01:44:00;9.30;;;2.30;;
76953;SDS011;65893;51.698;-0.292;2023-01-19T01:46:30;6.38;;;2.20;;
76953;SDS011;65893;51.698;-0.292;2023-01-19T01:54:24;3.50;;;1.50;;
76953;SDS011;65893;51.698;-0.292;2023-01-19T01:56:51;4.70;;;1.63;;
76953;SDS011;65893;51.698;-0.292;2023-01-19T01:59:19;4.18;;;1.58;;
76953;SDS011;65893;51.698;-0.292;2023-01-19T02:01:56;10.48;;;2.15;;
76953;SDS011;65893;51.698;-0.292;2023-01-19T02:04:43;7.70;;;2.15;;
76953;SDS011;65893;51.698;-0.292;2023-01-19T02:07:11;6.63;;;2.05;;
76953;SDS011;65893;51.698;-0.292;2023-01-19T02:09:58;6.07;;;2.20;;
76953;SDS011;65893;51.698;-0.292;2023-01-19T02:12:43;4.25;;;1.63;;
76953;SDS011;65893;51.698;-0.292;2023-01-19T02:15:27;9.27;;;2.53;;
76953;SDS011;65893;51.698;-0.292;2023-01-19T02:20:22;3.65;;;1.73;;
76953;SDS011;65893;51.698;-0.292;2023-01-19T02:22:50;9.02;;;2.17;;
76953;SDS011;65893;51.698;-0.292;2023-01-19T02:25:17;6.28;;;2.10;;
76953;SDS011;65893;51.698;-0.292;2023-01-19T02:27:44;7.53;;;2.13;;
76953;SDS011;65893;51.698;-0.292;2023-01-19T02:30:11;6.95;;;2.05;;
76953;SDS011;65893;51.698;-0.292;2023-01-19T02:32:37;4.80;;;1.80;;
76953;SDS011;65893;51.698;-0.292;2023-01-19T02:37:29;5.03;;;2.00;;
76953;SDS011;65893;51.698;-0.292;2023-01-19T02:39:58;4.05;;;1.63;;
76953;SDS011;65893;51.698;-0.292;2023-01-19T02:42:26;5.85;;;1.80;;
76953;SDS011;65893;51.698;-0.292;2023-01-19T02:44:55;7.43;;;1.67;;
76953;SDS011;65893;51.698;-0.292;2023-01-19T02:47:21;6.75;;;2.10;;
76953;SDS011;65893;51.698;-0.292;2023-01-19T02:49:57;6.28;;;1.65;;
76953;SDS011;65893;51.698;-0.292;2023-01-19T02:52:23;5.47;;;1.80;;
76953;SDS011;65893;51.698;-0.292;2023-01-19T02:57:29;6.25;;;1.52;;
76953;SDS011;65893;51.698;-0.292;2023-01-19T03:04:57;4.72;;;1.85;;
76953;SDS011;65893;51.698;-0.292;2023-01-19T03:12:28;5.00;;;2.10;;
76953;SDS011;65893;51.698;-0.292;2023-01-19T03:14:58;4.82;;;1.42;;
76953;SDS011;65893;51.698;-0.292;2023-01-19T03:17:26;7.07;;;2.15;;
76953;SDS011;65893;51.698;-0.292;2023-01-19T03:19:54;9.88;;;2.30;;
76953;SDS011;65893;51.698;-0.292;2023-01-19T03:22:25;7.07;;;2.05;;
76953;SDS011;65893;51.698;-0.292;2023-01-19T03:24:53;7.80;;;2.30;;
76953;SDS011;65893;51.698;-0.292;2023-01-19T03:27:22;6.72;;;1.85;;
76953;SDS011;65893;51.698;-0.292;2023-01-19T03:29:51;6.10;;;2.05;;
76953;SDS011;65893;51.698;-0.292;2023-01-19T03:32:18;4.20;;;2.10;;
76953;SDS011;65893;51.698;-0.292;2023-01-19T03:34:45;8.25;;;2.20;;
76953;SDS011;65893;51.698;-0.292;2023-01-19T03:37:14;6.28;;;1.98;;
76953;SDS011;65893;51.698;-0.292;2023-01-19T03:39:40;6.68;;;1.73;;
76953;SDS011;65893;51.698;-0.292;2023-01-19T03:42:08;7.93;;;1.90;;
76953;SDS011;65893;51.698;-0.292;2023-01-19T03:44:36;7.75;;;2.25;;
76953;SDS011;65893;51.698;-0.292;2023-01-19T03:47:02;5.53;;;2.33;;
76953;SDS011;65893;51.698;-0.292;2023-01-19T03:49:30;8.13;;;2.25;;
76953;SDS011;65893;51.698;-0.292;2023-01-19T03:51:56;6.60;;;1.98;;
76953;SDS011;65893;51.698;-0.292;2023-01-19T03:54:23;5.05;;;1.90;;
76953;SDS011;65893;51.698;-0.292;2023-01-19T03:56:49;4.03;;;1.85;;
76953;SDS011;65893;51.698;-0.292;2023-01-19T03:59:16;5.88;;;1.88;;
76953;SDS011;65893;51.698;-0.292;2023-01-19T04:01:44;4.50;;;1.67;;
76953;SDS011;65893;51.698;-0.292;2023-01-19T04:04:10;4.65;;;1.67;;
76953;SDS011;65893;51.698;-0.292;2023-01-19T04:06:37;7.15;;;2.00;;
76953;SDS011;65893;51.698;-0.292;2023-01-19T04:09:03;5.93;;;1.70;;
76953;SDS011;65893;51.698;-0.292;2023-01-19T04:11:29;8.30;;;2.00;;
76953;SDS011;65893;51.698;-0.292;2023-01-19T04:16:21;5.97;;;1.63;;
76953;SDS011;65893;51.698;-0.292;2023-01-19T04:18:48;7.75;;;1.90;;
76953;SDS011;65893;51.698;-0.292;2023-01-19T04:21:14;7.68;;;1.90;;
76953;SDS011;65893;51.698;-0.292;2023-01-19T04:23:41;6.50;;;2.22;;
76953;SDS011;65893;51.698;-0.292;2023-01-19T04:26:08;4.82;;;1.77;;
76953;SDS011;65893;51.698;-0.292;2023-01-19T04:28:34;4.47;;;1.60;;
76953;SDS011;65893;51.698;-0.292;2023-01-19T04:31:04;6.65;;;2.00;;
76953;SDS011;65893;51.698;-0.292;2023-01-19T04:33:30;6.28;;;1.98;;
76953;SDS011;65893;51.698;-0.292;2023-01-19T04:35:56;7.95;;;2.30;;
76953;SDS011;65893;51.698;-0.292;2023-01-19T04:38:23;5.07;;;2.40;;
76953;SDS011;65893;51.698;-0.292;2023-01-19T04:40:49;5.30;;;1.77;;
76953;SDS011;65893;51.698;-0.292;2023-01-19T04:43:16;6.03;;;1.90;;
76953;SDS011;65893;51.698;-0.292;2023-01-19T04:45:42;7.82;;;2.20;;
76953;SDS011;65893;51.698;-0.292;2023-01-19T04:48:09;3.55;;;1.73;;
76953;SDS011;65893;51.698;-0.292;2023-01-19T04:50:35;5.38;;;1.58;;
76953;SDS011;65893;51.698;-0.292;2023-01-19T04:53:02;5.95;;;1.90;;
76953;SDS011;65893;51.698;-0.292;2023-01-19T04:55:28;6.32;;;2.00;;
76953;SDS011;65893;51.698;-0.292;2023-01-19T04:57:54;6.78;;;2.75;;
76953;SDS011;65893;51.698;-0.292;2023-01-19T05:00:20;5.63;;;1.98;;
76953;SDS011;65893;51.698;-0.292;2023-01-19T05:05:12;5.90;;;1.50;;
76953;SDS011;65893;51.698;-0.292;2023-01-19T05:10:04;7.25;;;2.05;;
76953;SDS011;65893;51.698;-0.292;2023-01-19T05:12:31;7.20;;;2.20;;
76953;SDS011;65893;51.698;-0.292;2023-01-19T05:14:57;6.40;;;2.15;;
76953;SDS011;65893;51.698;-0.292;2023-01-19T05:17:23;6.00;;;2.33;;
76953;SDS011;65893;51.698;-0.292;2023-01-19T05:19:49;6.40;;;2.40;;
76953;SDS011;65893;51.698;-0.292;2023-01-19T05:24:41;7.15;;;2.20;;
76953;SDS011;65893;51.698;-0.292;2023-01-19T05:27:07;6.20;;;2.33;;
76953;SDS011;65893;51.698;-0.292;2023-01-19T05:29:33;9.23;;;2.42;;
76953;SDS011;65893;51.698;-0.292;2023-01-19T05:34:25;5.22;;;1.92;;
76953;SDS011;65893;51.698;-0.292;2023-01-19T05:36:51;9.38;;;2.45;;
76953;SDS011;65893;51.698;-0.292;2023-01-19T05:41:43;8.23;;;2.15;;
76953;SDS011;65893;51.698;-0.292;2023-01-19T05:44:09;8.02;;;2.10;;
76953;SDS011;65893;51.698;-0.292;2023-01-19T05:46:36;8.38;;;2.50;;
76953;SDS011;65893;51.698;-0.292;2023-01-19T05:49:02;8.98;;;2.28;;
76953;SDS011;65893;51.698;-0.292;2023-01-19T05:51:32;4.40;;;1.70;;
76953;SDS011;65893;51.698;-0.292;2023-01-19T05:54:09;9.20;;;2.17;;
76953;SDS011;65893;51.698;-0.292;2023-01-19T05:56:36;7.25;;;2.17;;
76953;SDS011;65893;51.698;-0.292;2023-01-19T05:59:03;6.40;;;2.10;;
76953;SDS011;65893;51.698;-0.292;2023-01-19T06:03:55;9.13;;;2.35;;
76953;SDS011;65893;51.698;-0.292;2023-01-19T06:08:47;7.40;;;1.85;;
76953;SDS011;65893;51.698;-0.292;2023-01-19T06:11:13;5.60;;;2.25;;
76953;SDS011;65893;51.698;-0.292;2023-01-19T06:13:39;9.73;;;3.03;;
76953;SDS011;65893;51.698;-0.292;2023-01-19T06:16:06;5.55;;;2.30;;
76953;SDS011;65893;51.698;-0.292;2023-01-19T06:18:32;10.30;;;2.72;;
76953;SDS011;65893;51.698;-0.292;2023-01-19T06:21:01;5.85;;;2.22;;
76953;SDS011;65893;51.698;-0.292;2023-01-19T06:23:31;8.80;;;2.42;;
76953;SDS011;65893;51.698;-0.292;2023-01-19T06:25:57;8.40;;;3.38;;
76953;SDS011;65893;51.698;-0.292;2023-01-19T06:30:49;7.72;;;3.08;;
76953;SDS011;65893;51.698;-0.292;2023-01-19T06:33:16;11.60;;;2.85;;
76953;SDS011;65893;51.698;-0.292;2023-01-19T06:35:43;9.07;;;3.30;;
76953;SDS011;65893;51.698;-0.292;2023-01-19T06:38:09;11.20;;;3.05;;
76953;SDS011;65893;51.698;-0.292;2023-01-19T06:40:37;6.38;;;2.20;;
76953;SDS011;65893;51.698;-0.292;2023-01-19T06:43:03;7.90;;;2.70;;
76953;SDS011;65893;51.698;-0.292;2023-01-19T06:45:30;4.72;;;2.15;;
76953;SDS011;65893;51.698;-0.292;2023-01-19T06:47:56;6.38;;;2.15;;
76953;SDS011;65893;51.698;-0.292;2023-01-19T06:50:22;10.60;;;2.45;;
76953;SDS011;65893;51.698;-0.292;2023-01-19T06:55:15;6.68;;;2.72;;
76953;SDS011;65893;51.698;-0.292;2023-01-19T06:57:41;9.40;;;2.90;;
76953;SDS011;65893;51.698;-0.292;2023-01-19T07:00:08;5.25;;;1.80;;
76953;SDS011;65893;51.698;-0.292;2023-01-19T07:02:35;8.05;;;2.58;;
76953;SDS011;65893;51.698;-0.292;2023-01-19T07:05:01;8.27;;;2.35;;
76953;SDS011;65893;51.698;-0.292;2023-01-19T07:07:27;4.75;;;2.20;;
76953;SDS011;65893;51.698;-0.292;2023-01-19T07:09:53;8.40;;;2.50;;
76953;SDS011;65893;51.698;-0.292;2023-01-19T07:12:20;10.68;;;2.88;;
76953;SDS011;65893;51.698;-0.292;2023-01-19T07:14:46;5.10;;;1.85;;
76953;SDS011;65893;51.698;-0.292;2023-01-19T07:17:13;10.35;;;2.92;;
76953;SDS011;65893;51.698;-0.292;2023-01-19T07:19:39;8.65;;;2.63;;
76953;SDS011;65893;51.698;-0.292;2023-01-19T07:24:31;7.25;;;2.05;;
76953;SDS011;65893;51.698;-0.292;2023-01-19T07:26:59;8.32;;;2.90;;
76953;SDS011;65893;51.698;-0.292;2023-01-19T07:29:25;7.30;;;2.50;;
76953;SDS011;65893;51.698;-0.292;2023-01-19T07:34:19;7.40;;;2.33;;
76953;SDS011;65893;51.698;-0.292;2023-01-19T07:36:45;7.65;;;2.35;;
76953;SDS011;65893;51.698;-0.292;2023-01-19T07:39:12;9.75;;;2.42;;
76953;SDS011;65893;51.698;-0.292;2023-01-19T07:41:38;7.28;;;2.17;;
76953;SDS011;65893;51.698;-0.292;2023-01-19T07:46:30;5.40;;;2.13;;
76953;SDS011;65893;51.698;-0.292;2023-01-19T07:48:56;8.50;;;2.65;;
76953;SDS011;65893;51.698;-0.292;2023-01-19T07:53:48;8.68;;;1.92;;
76953;SDS011;65893;51.698;-0.292;2023-01-19T07:56:15;4.80;;;2.10;;
76953;SDS011;65893;51.698;-0.292;2023-01-19T07:58:41;6.40;;;1.88;;
76953;SDS011;65893;51.698;-0.292;2023-01-19T08:01:08;8.55;;;2.58;;
76953;SDS011;65893;51.698;-0.292;2023-01-19T08:03:34;7.40;;;2.20;;
76953;SDS011;65893;51.698;-0.292;2023-01-19T08:06:00;8.40;;;2.00;;
76953;SDS011;65893;51.698;-0.292;2023-01-19T08:08:28;12.00;;;2.58;;
76953;SDS011;65893;51.698;-0.292;2023-01-19T08:10:54;4.53;;;2.08;;
76953;SDS011;65893;51.698;-0.292;2023-01-19T08:13:20;8.80;;;2.00;;
76953;SDS011;65893;51.698;-0.292;2023-01-19T08:15:50;6.85;;;2.20;;
76953;SDS011;65893;51.698;-0.292;2023-01-19T08:18:16;9.55;;;2.38;;
76953;SDS011;65893;51.698;-0.292;2023-01-19T08:20:42;6.88;;;2.22;;
76953;SDS011;65893;51.698;-0.292;2023-01-19T08:23:08;8.88;;;2.40;;
76953;SDS011;65893;51.698;-0.292;2023-01-19T08:25:38;7.22;;;2.53;;
76953;SDS011;65893;51.698;-0.292;2023-01-19T08:28:11;6.45;;;2.47;;
76953;SDS011;65893;51.698;-0.292;2023-01-19T08:30:44;7.97;;;2.38;;
76953;SDS011;65893;51.698;-0.292;2023-01-19T17:35:15;12.93;;;3.35;;
76953;SDS011;65893;51.698;-0.292;2023-01-19T17:40:07;8.73;;;3.35;;
76953;SDS011;65893;51.698;-0.292;2023-01-19T17:42:37;10.60;;;3.17;;
76953;SDS011;65893;51.698;-0.292;2023-01-19T17:45:03;9.15;;;3.50;;
76953;SDS011;65893;51.698;-0.292;2023-01-19T17:47:30;8.35;;;3.55;;
76953;SDS011;65893;51.698;-0.292;2023-01-19T17:49:56;10.23;;;4.22;;
76953;SDS011;65893;51.698;-0.292;2023-01-19T17:52:22;10.63;;;4.20;;
76953;SDS011;65893;51.698;-0.292;2023-01-19T17:57:14;14.07;;;4.18;;
76953;SDS011;65893;51.698;-0.292;2023-01-19T18:02:08;8.23;;;3.28;;
76953;SDS011;65893;51.698;-0.292;2023-01-19T18:04:37;11.65;;;4.22;;
76953;SDS011;65893;51.698;-0.292;2023-01-19T18:07:04;13.10;;;4.70;;
76953;SDS011;65893;51.698;-0.292;2023-01-19T18:09:30;13.15;;;5.38;;
76953;SDS011;65893;51.698;-0.292;2023-01-19T18:14:22;12.90;;;6.05;;
76953;SDS011;65893;51.698;-0.292;2023-01-19T18:16:48;14.98;;;8.00;;
76953;SDS011;65893;51.698;-0.292;2023-01-19T18:19:14;18.65;;;8.38;;
76953;SDS011;65893;51.698;-0.292;2023-01-19T18:21:40;14.43;;;6.63;;
76953;SDS011;65893;51.698;-0.292;2023-01-19T18:24:06;9.07;;;4.93;;
76953;SDS011;65893;51.698;-0.292;2023-01-19T18:26:32;9.25;;;3.75;;
76953;SDS011;65893;51.698;-0.292;2023-01-19T18:28:59;12.32;;;3.97;;
76953;SDS011;65893;51.698;-0.292;2023-01-19T18:31:25;9.55;;;3.67;;
76953;SDS011;65893;51.698;-0.292;2023-01-19T18:33:51;7.03;;;3.03;;
76953;SDS011;65893;51.698;-0.292;2023-01-19T18:36:18;7.05;;;2.85;;
76953;SDS011;65893;51.698;-0.292;2023-01-19T18:38:44;6.10;;;2.80;;
76953;SDS011;65893;51.698;-0.292;2023-01-19T18:41:17;9.02;;;3.17;;
76953;SDS011;65893;51.698;-0.292;2023-01-19T18:43:44;7.68;;;3.22;;
76953;SDS011;65893;51.698;-0.292;2023-01-19T18:46:10;12.02;;;4.00;;
76953;SDS011;65893;51.698;-0.292;2023-01-19T18:51:06;8.55;;;3.72;;
76953;SDS011;65893;51.698;-0.292;2023-01-19T18:53:32;7.57;;;2.85;;
76953;SDS011;65893;51.698;-0.292;2023-01-19T18:55:59;9.23;;;3.67;;
76953;SDS011;65893;51.698;-0.292;2023-01-19T18:58:26;9.55;;;3.95;;
76953;SDS011;65893;51.698;-0.292;2023-01-19T19:00:53;9.38;;;4.05;;
76953;SDS011;65893;51.698;-0.292;2023-01-19T19:03:19;11.95;;;4.50;;
76953;SDS011;65893;51.698;-0.292;2023-01-19T19:05:46;18.67;;;4.30;;
76953;SDS011;65893;51.698;-0.292;2023-01-19T19:08:12;9.68;;;3.50;;
76953;SDS011;65893;51.698;-0.292;2023-01-19T19:10:41;9.13;;;3.92;;
76953;SDS011;65893;51.698;-0.292;2023-01-19T19:13:07;9.45;;;4.32;;
76953;SDS011;65893;51.698;-0.292;2023-01-19T19:15:33;9.98;;;3.45;;
76953;SDS011;65893;51.698;-0.292;2023-01-19T19:17:59;7.57;;;3.13;;
76953;SDS011;65893;51.698;-0.292;2023-01-19T19:20:26;8.38;;;3.80;;
76953;SDS011;65893;51.698;-0.292;2023-01-19T19:22:54;9.13;;;3.35;;
76953;SDS011;65893;51.698;-0.292;2023-01-19T19:25:20;11.20;;;3.75;;
76953;SDS011;65893;51.698;-0.292;2023-01-19T19:27:50;11.68;;;4.80;;
76953;SDS011;65893;51.698;-0.292;2023-01-19T19:30:18;9.50;;;3.85;;
76953;SDS011;65893;51.698;-0.292;2023-01-19T19:32:52;14.77;;;3.88;;
76953;SDS011;65893;51.698;-0.292;2023-01-19T19:35:19;9.50;;;3.83;;
76953;SDS011;65893;51.698;-0.292;2023-01-19T19:37:46;9.80;;;4.60;;
76953;SDS011;65893;51.698;-0.292;2023-01-19T19:40:13;10.70;;;4.05;;
76953;SDS011;65893;51.698;-0.292;2023-01-19T19:42:40;9.85;;;3.90;;
76953;SDS011;65893;51.698;-0.292;2023-01-19T19:45:06;17.70;;;4.25;;
76953;SDS011;65893;51.698;-0.292;2023-01-19T19:47:32;8.70;;;3.95;;
76953;SDS011;65893;51.698;-0.292;2023-01-19T19:49:59;9.60;;;4.03;;
76953;SDS011;65893;51.698;-0.292;2023-01-19T19:54:57;9.18;;;3.88;;
76953;SDS011;65893;51.698;-0.292;2023-01-19T19:59:49;40.60;;;7.88;;
76953;SDS011;65893;51.698;-0.292;2023-01-19T20:04:41;8.68;;;3.47;;
76953;SDS011;65893;51.698;-0.292;2023-01-19T20:07:08;12.30;;;3.65;;
76953;SDS011;65893;51.698;-0.292;2023-01-19T20:12:01;7.78;;;3.25;;
76953;SDS011;65893;51.698;-0.292;2023-01-19T20:14:27;13.00;;;4.22;;
76953;SDS011;65893;51.698;-0.292;2023-01-19T20:16:53;9.73;;;4.03;;
76953;SDS011;65893;51.698;-0.292;2023-01-19T20:19:19;9.10;;;3.45;;
76953;SDS011;65893;51.698;-0.292;2023-01-19T20:24:18;7.57;;;3.25;;
76953;SDS011;65893;51.698;-0.292;2023-01-19T20:26:48;12.20;;;4.18;;
76953;SDS011;65893;51.698;-0.292;2023-01-19T20:29:15;9.27;;;3.95;;
76953;SDS011;65893;51.698;-0.292;2023-01-19T20:31:43;11.27;;;3.67;;
76953;SDS011;65893;51.698;-0.292;2023-01-19T20:34:10;7.47;;;3.20;;
76953;SDS011;65893;51.698;-0.292;2023-01-19T20:36:36;13.68;;;3.55;;
76953;SDS011;65893;51.698;-0.292;2023-01-19T20:39:03;13.98;;;3.92;;
76953;SDS011;65893;51.698;-0.292;2023-01-19T20:41:34;8.80;;;3.97;;
76953;SDS011;65893;51.698;-0.292;2023-01-19T20:44:07;6.88;;;3.35;;
76953;SDS011;65893;51.698;-0.292;2023-01-19T20:46:34;11.55;;;3.33;;
76953;SDS011;65893;51.698;-0.292;2023-01-19T20:49:00;15.98;;;3.70;;
76953;SDS011;65893;51.698;-0.292;2023-01-19T20:54:41;12.15;;;3.60;;
76953;SDS011;65893;51.698;-0.292;2023-01-19T20:57:07;11.20;;;3.28;;
76953;SDS011;65893;51.698;-0.292;2023-01-19T21:02:04;9.70;;;3.28;;
76953;SDS011;65893;51.698;-0.292;2023-01-19T21:04:42;10.15;;;4.40;;
76953;SDS011;65893;51.698;-0.292;2023-01-19T21:07:08;10.43;;;3.45;;
76953;SDS011;65893;51.698;-0.292;2023-01-19T21:09:35;14.38;;;4.00;;
76953;SDS011;65893;51.698;-0.292;2023-01-19T21:12:02;10.10;;;3.20;;
76953;SDS011;65893;51.698;-0.292;2023-01-19T21:14:28;10.23;;;3.17;;
76953;SDS011;65893;51.698;-0.292;2023-01-19T21:19:23;7.97;;;2.90;;
76953;SDS011;65893;51.698;-0.292;2023-01-19T21:21:51;9.48;;;3.72;;
76953;SDS011;65893;51.698;-0.292;2023-01-19T21:24:37;9.75;;;4.47;;
76953;SDS011;65893;51.698;-0.292;2023-01-19T21:27:06;15.00;;;3.83;;
76953;SDS011;65893;51.698;-0.292;2023-01-19T21:29:33;9.38;;;3.00;;
76953;SDS011;65893;51.698;-0.292;2023-01-19T21:32:07;8.35;;;3.50;;
76953;SDS011;65893;51.698;-0.292;2023-01-19T21:37:00;13.40;;;3.90;;
76953;SDS011;65893;51.698;-0.292;2023-01-19T21:39:27;10.55;;;2.38;;
76953;SDS011;65893;51.698;-0.292;2023-01-19T21:41:56;8.70;;;2.75;;
76953;SDS011;65893;51.698;-0.292;2023-01-19T21:44:22;8.90;;;2.75;;
76953;SDS011;65893;51.698;-0.292;2023-01-19T21:50:54;8.82;;;2.80;;
76953;SDS011;65893;51.698;-0.292;2023-01-19T21:58:12;11.02;;;3.10;;
76953;SDS011;65893;51.698;-0.292;2023-01-19T22:03:10;7.18;;;2.30;;
76953;SDS011;65893;51.698;-0.292;2023-01-19T22:05:41;9.50;;;2.33;;
76953;SDS011;65893;51.698;-0.292;2023-01-19T22:08:13;10.52;;;2.70;;
76953;SDS011;65893;51.698;-0.292;2023-01-19T22:10:39;7.85;;;2.30;;
76953;SDS011;65893;51.698;-0.292;2023-01-19T22:15:31;7.68;;;2.00;;
76953;SDS011;65893;51.698;-0.292;2023-01-19T22:18:07;6.30;;;2.60;;
76953;SDS011;65893;51.698;-0.292;2023-01-19T22:20:33;6.15;;;2.15;;
76953;SDS011;65893;51.698;-0.292;2023-01-19T22:25:25;6.35;;;2.00;;
76953;SDS011;65893;51.698;-0.292;2023-01-19T22:27:54;17.25;;;3.05;;
76953;SDS011;65893;51.698;-0.292;2023-01-19T22:30:22;6.97;;;3.03;;
76953;SDS011;65893;51.698;-0.292;2023-01-19T22:32:48;14.48;;;3.45;;
76953;SDS011;65893;51.698;-0.292;2023-01-19T22:37:40;9.13;;;2.40;;
76953;SDS011;65893;51.698;-0.292;2023-01-19T22:42:32;6.93;;;2.67;;
76953;SDS011;65893;51.698;-0.292;2023-01-19T22:47:24;7.50;;;2.13;;
76953;SDS011;65893;51.698;-0.292;2023-01-19T22:52:16;7.47;;;2.60;;
76953;SDS011;65893;51.698;-0.292;2023-01-19T22:54:42;6.82;;;2.13;;
76953;SDS011;65893;51.698;-0.292;2023-01-19T22:59:35;5.72;;;1.88;;
76953;SDS011;65893;51.698;-0.292;2023-01-19T23:04:27;4.97;;;1.88;;
76953;SDS011;65893;51.698;-0.292;2023-01-19T23:09:19;5.30;;;2.15;;
76953;SDS011;65893;51.698;-0.292;2023-01-19T23:11:46;6.38;;;2.13;;
76953;SDS011;65893;51.698;-0.292;2023-01-19T23:14:19;4.45;;;1.83;;
76953;SDS011;65893;51.698;-0.292;2023-01-19T23:16:45;6.35;;;1.90;;
76953;SDS011;65893;51.698;-0.292;2023-01-19T23:19:12;6.20;;;1.90;;
76953;SDS011;65893;51.698;-0.292;2023-01-19T23:21:38;4.97;;;1.70;;
76953;SDS011;65893;51.698;-0.292;2023-01-19T23:24:05;5.82;;;2.00;;
76953;SDS011;65893;51.698;-0.292;2023-01-19T23:26:31;5.70;;;1.75;;
76953;SDS011;65893;51.698;-0.292;2023-01-19T23:29:08;4.82;;;1.48;;
76953;SDS011;65893;51.698;-0.292;2023-01-19T23:31:35;4.25;;;1.83;;
76953;SDS011;65893;51.698;-0.292;2023-01-19T23:34:02;8.88;;;2.13;;
76953;SDS011;65893;51.698;-0.292;2023-01-19T23:36:30;6.60;;;2.03;;
76953;SDS011;65893;51.698;-0.292;2023-01-19T23:39:01;9.13;;;2.10;;
76953;SDS011;65893;51.698;-0.292;2023-01-19T23:41:28;5.90;;;1.85;;
76953;SDS011;65893;51.698;-0.292;2023-01-19T23:43:55;4.68;;;1.67;;
76953;SDS011;65893;51.698;-0.292;2023-01-19T23:46:21;12.02;;;1.80;;
76953;SDS011;65893;51.698;-0.292;2023-01-19T23:51:23;4.93;;;1.55;;
76953;SDS011;65893;51.698;-0.292;2023-01-19T23:53:49;3.92;;;1.65;;
76953;SDS011;65893;51.698;-0.292;2023-01-19T23:58:41;5.35;;;1.48;;
